sensor_id;sensor_type;location;lat;lon;timestamp;pressure;altitude;pressure_sealevel;temperature;humidity
74334;BME280;62753;40.394;-80.022;2023-01-26T00:00:19;95638.41;;;10.93;50.29
74334;BME280;62753;40.394;-80.022;2023-01-26T00:02:45;95637.50;;;11.03;49.93
74334;BME280;62753;40.394;-80.022;2023-01-26T00:05:10;95638.29;;;10.61;50.65
74334;BME280;62753;40.394;-80.022;2023-01-26T00:07:36;95639.41;;;10.30;52.66
74334;BME280;62753;40.394;-80.022;2023-01-26T00:10:02;95644.92;;;11.36;50.50
74334;BME280;62753;40.394;-80.022;2023-01-26T00:12:27;95646.76;;;11.35;48.99
74334;BME280;62753;40.394;-80.022;2023-01-26T00:14:52;95650.01;;;11.68;47.76
74334;BME280;62753;40.394;-80.022;2023-01-26T00:17:18;95643.15;;;12.41;46.08
74334;BME280;62753;40.394;-80.022;2023-01-26T00:19:42;95641.83;;;11.74;48.20
74334;BME280;62753;40.394;-80.022;2023-01-26T00:22:08;95637.95;;;12.91;46.03
74334;BME280;62753;40.394;-80.022;2023-01-26T00:24:33;95643.21;;;13.35;44.25
74334;BME280;62753;40.394;-80.022;2023-01-26T00:26:59;95642.17;;;14.18;41.95
74334;BME280;62753;40.394;-80.022;2023-01-26T00:29:24;95632.02;;;11.48;47.92
74334;BME280;62753;40.394;-80.022;2023-01-26T00:31:49;95638.70;;;10.69;52.60
74334;BME280;62753;40.394;-80.022;2023-01-26T00:34:15;95637.27;;;10.68;51.03
74334;BME280;62753;40.394;-80.022;2023-01-26T00:36:40;95637.50;;;11.20;52.38
74334;BME280;62753;40.394;-80.022;2023-01-26T00:39:06;95631.69;;;11.16;50.88
74334;BME280;62753;40.394;-80.022;2023-01-26T00:41:31;95631.52;;;11.83;49.56
74334;BME280;62753;40.394;-80.022;2023-01-26T00:43:57;95629.01;;;11.97;48.92
74334;BME280;62753;40.394;-80.022;2023-01-26T00:46:22;95630.16;;;13.18;47.08
74334;BME280;62753;40.394;-80.022;2023-01-26T00:48:48;95627.59;;;12.61;48.52
74334;BME280;62753;40.394;-80.022;2023-01-26T00:51:13;95627.05;;;12.60;47.87
74334;BME280;62753;40.394;-80.022;2023-01-26T00:53:38;95623.62;;;12.36;48.56
74334;BME280;62753;40.394;-80.022;2023-01-26T00:56:04;95633.52;;;12.12;49.10
74334;BME280;62753;40.394;-80.022;2023-01-26T00:58:29;95628.67;;;11.16;51.86
74334;BME280;62753;40.394;-80.022;2023-01-26T01:00:54;95636.74;;;11.54;50.63
74334;BME280;62753;40.394;-80.022;2023-01-26T01:03:20;95644.14;;;11.19;50.34
74334;BME280;62753;40.394;-80.022;2023-01-26T01:05:45;95652.83;;;10.21;52.56
74334;BME280;62753;40.394;-80.022;2023-01-26T01:08:11;95636.21;;;10.84;51.19
74334;BME280;62753;40.394;-80.022;2023-01-26T01:10:36;95646.23;;;11.72;48.97
74334;BME280;62753;40.394;-80.022;2023-01-26T01:13:01;95653.04;;;11.65;48.12
74334;BME280;62753;40.394;-80.022;2023-01-26T01:15:27;95649.92;;;10.65;49.81
74334;BME280;62753;40.394;-80.022;2023-01-26T01:17:53;95653.87;;;10.73;49.06
74334;BME280;62753;40.394;-80.022;2023-01-26T01:20:18;95650.05;;;10.64;49.17
74334;BME280;62753;40.394;-80.022;2023-01-26T01:22:43;95646.09;;;9.92;49.25
74334;BME280;62753;40.394;-80.022;2023-01-26T01:25:08;95646.83;;;10.11;48.75
74334;BME280;62753;40.394;-80.022;2023-01-26T01:27:34;95629.11;;;9.79;49.85
74334;BME280;62753;40.394;-80.022;2023-01-26T01:29:59;95638.88;;;9.55;48.74
74334;BME280;62753;40.394;-80.022;2023-01-26T01:32:25;95632.60;;;8.96;50.39
74334;BME280;62753;40.394;-80.022;2023-01-26T01:34:50;95642.60;;;9.74;48.94
74334;BME280;62753;40.394;-80.022;2023-01-26T01:37:16;95648.35;;;9.63;49.07
74334;BME280;62753;40.394;-80.022;2023-01-26T01:39:40;95660.09;;;10.20;47.09
74334;BME280;62753;40.394;-80.022;2023-01-26T01:42:06;95662.06;;;10.15;46.60
74334;BME280;62753;40.394;-80.022;2023-01-26T01:44:35;95652.47;;;9.82;47.36
74334;BME280;62753;40.394;-80.022;2023-01-26T01:46:59;95666.96;;;10.57;46.13
74334;BME280;62753;40.394;-80.022;2023-01-26T01:49:26;95662.21;;;10.19;46.94
74334;BME280;62753;40.394;-80.022;2023-01-26T01:51:52;95672.75;;;10.25;46.25
74334;BME280;62753;40.394;-80.022;2023-01-26T01:54:16;95680.68;;;9.73;46.68
74334;BME280;62753;40.394;-80.022;2023-01-26T01:56:41;95677.12;;;9.54;47.56
74334;BME280;62753;40.394;-80.022;2023-01-26T01:59:06;95682.99;;;10.58;45.46
74334;BME280;62753;40.394;-80.022;2023-01-26T02:01:29;95686.55;;;10.67;44.53
74334;BME280;62753;40.394;-80.022;2023-01-26T02:03:58;95685.02;;;9.66;46.86
74334;BME280;62753;40.394;-80.022;2023-01-26T02:06:22;95679.26;;;9.96;45.85
74334;BME280;62753;40.394;-80.022;2023-01-26T02:08:48;95677.13;;;8.67;47.17
74334;BME280;62753;40.394;-80.022;2023-01-26T02:11:12;95684.58;;;8.65;47.57
74334;BME280;62753;40.394;-80.022;2023-01-26T02:13:36;95689.42;;;8.94;47.13
74334;BME280;62753;40.394;-80.022;2023-01-26T02:16:02;95684.23;;;9.86;44.64
74334;BME280;62753;40.394;-80.022;2023-01-26T02:18:27;95687.81;;;9.30;45.97
74334;BME280;62753;40.394;-80.022;2023-01-26T02:20:54;95682.86;;;9.08;45.52
74334;BME280;62753;40.394;-80.022;2023-01-26T02:23:24;95681.39;;;9.39;45.88
74334;BME280;62753;40.394;-80.022;2023-01-26T02:28:08;95693.78;;;8.17;46.28
74334;BME280;62753;40.394;-80.022;2023-01-26T02:30:34;95720.55;;;8.67;45.52
74334;BME280;62753;40.394;-80.022;2023-01-26T02:32:59;95704.70;;;8.65;45.16
74334;BME280;62753;40.394;-80.022;2023-01-26T02:35:25;95703.90;;;8.35;46.00
74334;BME280;62753;40.394;-80.022;2023-01-26T02:37:50;95709.21;;;9.18;44.00
74334;BME280;62753;40.394;-80.022;2023-01-26T02:40:23;95706.56;;;8.17;46.47
74334;BME280;62753;40.394;-80.022;2023-01-26T02:42:41;95707.15;;;7.94;48.22
74334;BME280;62753;40.394;-80.022;2023-01-26T02:45:07;95717.49;;;8.10;46.58
74334;BME280;62753;40.394;-80.022;2023-01-26T02:47:32;95715.89;;;8.20;45.81
74334;BME280;62753;40.394;-80.022;2023-01-26T02:49:57;95716.24;;;8.47;45.91
74334;BME280;62753;40.394;-80.022;2023-01-26T02:52:25;95718.72;;;8.18;45.98
74334;BME280;62753;40.394;-80.022;2023-01-26T02:54:48;95706.52;;;6.82;49.63
74334;BME280;62753;40.394;-80.022;2023-01-26T02:57:13;95724.14;;;6.83;50.80
74334;BME280;62753;40.394;-80.022;2023-01-26T02:59:39;95725.92;;;7.43;49.36
74334;BME280;62753;40.394;-80.022;2023-01-26T03:02:04;95729.64;;;6.93;49.72
74334;BME280;62753;40.394;-80.022;2023-01-26T03:04:29;95742.30;;;5.64;52.01
74334;BME280;62753;40.394;-80.022;2023-01-26T03:06:55;95745.14;;;7.11;49.74
74334;BME280;62753;40.394;-80.022;2023-01-26T03:09:20;95757.58;;;6.89;50.40
74334;BME280;62753;40.394;-80.022;2023-01-26T03:11:46;95756.50;;;6.55;49.90
74334;BME280;62753;40.394;-80.022;2023-01-26T03:14:12;95751.68;;;6.17;50.68
74334;BME280;62753;40.394;-80.022;2023-01-26T03:16:38;95768.83;;;5.73;51.74
74334;BME280;62753;40.394;-80.022;2023-01-26T03:19:03;95781.85;;;6.58;49.13
74334;BME280;62753;40.394;-80.022;2023-01-26T03:21:28;95798.46;;;6.19;49.63
74334;BME280;62753;40.394;-80.022;2023-01-26T03:23:53;95795.36;;;6.54;49.97
74334;BME280;62753;40.394;-80.022;2023-01-26T03:26:19;95800.53;;;5.87;50.49
74334;BME280;62753;40.394;-80.022;2023-01-26T03:28:44;95811.38;;;4.74;54.06
74334;BME280;62753;40.394;-80.022;2023-01-26T03:31:10;95809.73;;;5.95;51.95
74334;BME280;62753;40.394;-80.022;2023-01-26T03:33:36;95830.58;;;6.02;50.53
74334;BME280;62753;40.394;-80.022;2023-01-26T03:36:01;95824.96;;;4.81;53.06
74334;BME280;62753;40.394;-80.022;2023-01-26T03:38:26;95835.15;;;5.03;53.23
74334;BME280;62753;40.394;-80.022;2023-01-26T03:40:56;95833.35;;;5.14;53.11
74334;BME280;62753;40.394;-80.022;2023-01-26T03:43:17;95836.83;;;5.96;50.77
74334;BME280;62753;40.394;-80.022;2023-01-26T03:45:43;95849.93;;;5.77;50.73
74334;BME280;62753;40.394;-80.022;2023-01-26T03:48:10;95855.38;;;5.81;50.71
74334;BME280;62753;40.394;-80.022;2023-01-26T03:50:34;95851.01;;;5.91;50.13
74334;BME280;62753;40.394;-80.022;2023-01-26T03:52:59;95860.99;;;6.62;47.91
74334;BME280;62753;40.394;-80.022;2023-01-26T03:55:25;95861.83;;;6.76;45.96
74334;BME280;62753;40.394;-80.022;2023-01-26T03:57:51;95874.48;;;6.76;45.19
74334;BME280;62753;40.394;-80.022;2023-01-26T04:00:16;95885.69;;;4.72;49.53
74334;BME280;62753;40.394;-80.022;2023-01-26T04:02:41;95884.62;;;4.84;50.88
74334;BME280;62753;40.394;-80.022;2023-01-26T04:05:07;95899.15;;;5.04;50.59
74334;BME280;62753;40.394;-80.022;2023-01-26T04:07:32;95888.02;;;4.81;51.32
74334;BME280;62753;40.394;-80.022;2023-01-26T04:09:57;95894.46;;;4.66;51.22
74334;BME280;62753;40.394;-80.022;2023-01-26T04:12:23;95885.78;;;4.05;52.69
74334;BME280;62753;40.394;-80.022;2023-01-26T04:14:49;95897.29;;;5.30;49.98
74334;BME280;62753;40.394;-80.022;2023-01-26T04:17:14;95898.88;;;4.86;49.18
74334;BME280;62753;40.394;-80.022;2023-01-26T04:19:40;95899.57;;;4.97;48.66
74334;BME280;62753;40.394;-80.022;2023-01-26T04:22:05;95900.19;;;4.63;50.35
74334;BME280;62753;40.394;-80.022;2023-01-26T04:24:31;95905.69;;;4.80;49.49
74334;BME280;62753;40.394;-80.022;2023-01-26T04:26:56;95915.53;;;5.15;49.60
74334;BME280;62753;40.394;-80.022;2023-01-26T04:29:21;95906.39;;;5.35;47.94
74334;BME280;62753;40.394;-80.022;2023-01-26T04:31:47;95925.26;;;4.08;50.59
74334;BME280;62753;40.394;-80.022;2023-01-26T04:34:14;95912.38;;;4.54;49.82
74334;BME280;62753;40.394;-80.022;2023-01-26T04:36:38;95927.42;;;5.51;47.98
74334;BME280;62753;40.394;-80.022;2023-01-26T04:39:04;95939.99;;;4.93;48.90
74334;BME280;62753;40.394;-80.022;2023-01-26T04:41:30;95951.82;;;5.26;48.89
74334;BME280;62753;40.394;-80.022;2023-01-26T04:43:55;95954.22;;;4.48;50.34
74334;BME280;62753;40.394;-80.022;2023-01-26T04:46:20;95956.66;;;4.30;51.24
74334;BME280;62753;40.394;-80.022;2023-01-26T04:48:46;95949.12;;;5.09;49.54
74334;BME280;62753;40.394;-80.022;2023-01-26T04:51:13;95944.89;;;4.92;49.69
74334;BME280;62753;40.394;-80.022;2023-01-26T04:53:37;95950.85;;;4.53;50.90
74334;BME280;62753;40.394;-80.022;2023-01-26T04:56:03;95954.96;;;5.08;49.92
74334;BME280;62753;40.394;-80.022;2023-01-26T04:58:28;95953.38;;;5.42;49.13
74334;BME280;62753;40.394;-80.022;2023-01-26T05:00:56;95953.11;;;4.31;50.12
74334;BME280;62753;40.394;-80.022;2023-01-26T05:03:19;95956.36;;;5.69;48.27
74334;BME280;62753;40.394;-80.022;2023-01-26T05:05:48;95965.64;;;5.82;46.68
74334;BME280;62753;40.394;-80.022;2023-01-26T05:08:10;95960.51;;;5.89;45.34
74334;BME280;62753;40.394;-80.022;2023-01-26T05:10:36;95969.89;;;5.72;46.32
74334;BME280;62753;40.394;-80.022;2023-01-26T05:13:01;95973.98;;;5.18;47.23
74334;BME280;62753;40.394;-80.022;2023-01-26T05:15:27;95978.63;;;5.18;48.66
74334;BME280;62753;40.394;-80.022;2023-01-26T05:17:52;95978.50;;;4.45;50.28
74334;BME280;62753;40.394;-80.022;2023-01-26T05:20:18;95976.87;;;5.47;49.12
74334;BME280;62753;40.394;-80.022;2023-01-26T05:22:43;95978.99;;;4.71;50.44
74334;BME280;62753;40.394;-80.022;2023-01-26T05:25:09;95985.10;;;4.42;51.06
74334;BME280;62753;40.394;-80.022;2023-01-26T05:27:34;95978.26;;;5.93;47.97
74334;BME280;62753;40.394;-80.022;2023-01-26T05:30:00;95977.20;;;6.65;47.32
74334;BME280;62753;40.394;-80.022;2023-01-26T05:32:26;95980.73;;;6.26;47.10
74334;BME280;62753;40.394;-80.022;2023-01-26T05:34:51;95979.86;;;4.96;50.55
74334;BME280;62753;40.394;-80.022;2023-01-26T05:37:16;95982.85;;;4.24;53.51
74334;BME280;62753;40.394;-80.022;2023-01-26T05:39:42;95971.54;;;2.50;59.45
74334;BME280;62753;40.394;-80.022;2023-01-26T05:42:07;95975.48;;;3.97;55.99
74334;BME280;62753;40.394;-80.022;2023-01-26T05:44:33;95990.32;;;3.50;55.99
74334;BME280;62753;40.394;-80.022;2023-01-26T05:46:59;96000.38;;;4.94;53.75
74334;BME280;62753;40.394;-80.022;2023-01-26T05:49:24;95994.07;;;4.93;52.76
74334;BME280;62753;40.394;-80.022;2023-01-26T05:51:50;95994.61;;;4.70;52.41
74334;BME280;62753;40.394;-80.022;2023-01-26T05:54:15;95992.35;;;4.56;52.65
74334;BME280;62753;40.394;-80.022;2023-01-26T05:56:41;95990.89;;;5.09;51.23
74334;BME280;62753;40.394;-80.022;2023-01-26T05:59:07;95998.58;;;3.79;53.34
74334;BME280;62753;40.394;-80.022;2023-01-26T06:01:32;95992.60;;;3.21;54.86
74334;BME280;62753;40.394;-80.022;2023-01-26T06:03:58;95987.13;;;4.20;53.45
74334;BME280;62753;40.394;-80.022;2023-01-26T06:06:23;95993.58;;;5.04;52.00
74334;BME280;62753;40.394;-80.022;2023-01-26T06:08:48;95989.61;;;2.90;55.46
74334;BME280;62753;40.394;-80.022;2023-01-26T06:11:14;95999.32;;;4.12;53.17
74334;BME280;62753;40.394;-80.022;2023-01-26T06:13:40;96002.78;;;3.06;54.33
74334;BME280;62753;40.394;-80.022;2023-01-26T06:16:06;96006.03;;;4.03;52.30
74334;BME280;62753;40.394;-80.022;2023-01-26T06:18:31;96010.82;;;3.90;52.47
74334;BME280;62753;40.394;-80.022;2023-01-26T06:20:58;96011.24;;;3.59;52.98
74334;BME280;62753;40.394;-80.022;2023-01-26T06:23:22;96013.09;;;3.31;52.50
74334;BME280;62753;40.394;-80.022;2023-01-26T06:25:48;96018.19;;;3.56;51.94
74334;BME280;62753;40.394;-80.022;2023-01-26T06:28:13;96023.31;;;3.91;52.12
74334;BME280;62753;40.394;-80.022;2023-01-26T06:30:39;96022.53;;;3.05;53.01
74334;BME280;62753;40.394;-80.022;2023-01-26T06:33:04;96025.93;;;4.95;50.21
74334;BME280;62753;40.394;-80.022;2023-01-26T06:35:30;96028.91;;;4.65;51.03
74334;BME280;62753;40.394;-80.022;2023-01-26T06:37:55;96029.77;;;4.52;50.68
74334;BME280;62753;40.394;-80.022;2023-01-26T06:40:21;96033.52;;;4.79;50.79
74334;BME280;62753;40.394;-80.022;2023-01-26T06:42:47;96038.25;;;4.05;51.95
74334;BME280;62753;40.394;-80.022;2023-01-26T06:45:12;96036.35;;;3.97;52.53
74334;BME280;62753;40.394;-80.022;2023-01-26T06:47:43;96033.35;;;3.17;53.10
74334;BME280;62753;40.394;-80.022;2023-01-26T06:50:04;96041.74;;;2.68;55.04
74334;BME280;62753;40.394;-80.022;2023-01-26T06:52:31;96040.36;;;3.73;52.88
74334;BME280;62753;40.394;-80.022;2023-01-26T06:54:57;96038.45;;;3.94;51.83
74334;BME280;62753;40.394;-80.022;2023-01-26T06:57:20;96038.82;;;3.26;53.96
74334;BME280;62753;40.394;-80.022;2023-01-26T06:59:46;96053.49;;;2.23;56.60
74334;BME280;62753;40.394;-80.022;2023-01-26T07:02:16;96053.60;;;2.93;54.65
74334;BME280;62753;40.394;-80.022;2023-01-26T07:04:37;96046.34;;;2.65;56.23
74334;BME280;62753;40.394;-80.022;2023-01-26T07:07:02;96053.89;;;3.53;53.00
74334;BME280;62753;40.394;-80.022;2023-01-26T07:09:28;96050.70;;;2.34;54.46
74334;BME280;62753;40.394;-80.022;2023-01-26T07:11:53;96068.09;;;2.86;54.59
74334;BME280;62753;40.394;-80.022;2023-01-26T07:14:19;96064.10;;;3.79;52.25
74334;BME280;62753;40.394;-80.022;2023-01-26T07:16:44;96070.16;;;4.12;50.86
74334;BME280;62753;40.394;-80.022;2023-01-26T07:19:10;96068.16;;;4.48;49.03
74334;BME280;62753;40.394;-80.022;2023-01-26T07:21:36;96065.60;;;2.40;53.77
74334;BME280;62753;40.394;-80.022;2023-01-26T07:24:01;96065.05;;;3.02;52.39
74334;BME280;62753;40.394;-80.022;2023-01-26T07:26:26;96069.09;;;2.91;53.45
74334;BME280;62753;40.394;-80.022;2023-01-26T07:28:52;96069.32;;;2.66;52.95
74334;BME280;62753;40.394;-80.022;2023-01-26T07:31:17;96068.32;;;1.94;55.80
74334;BME280;62753;40.394;-80.022;2023-01-26T07:33:43;96081.68;;;4.32;49.39
74334;BME280;62753;40.394;-80.022;2023-01-26T07:36:08;96075.64;;;3.95;49.64
74334;BME280;62753;40.394;-80.022;2023-01-26T07:38:34;96077.84;;;3.48;50.50
74334;BME280;62753;40.394;-80.022;2023-01-26T07:41:05;96079.45;;;3.26;52.13
74334;BME280;62753;40.394;-80.022;2023-01-26T07:43:25;96077.62;;;3.15;52.73
74334;BME280;62753;40.394;-80.022;2023-01-26T07:45:56;96084.09;;;1.78;56.81
74334;BME280;62753;40.394;-80.022;2023-01-26T07:48:15;96088.02;;;3.47;52.57
74334;BME280;62753;40.394;-80.022;2023-01-26T07:50:41;96079.35;;;2.65;53.76
74334;BME280;62753;40.394;-80.022;2023-01-26T07:53:06;96084.31;;;4.29;51.06
74334;BME280;62753;40.394;-80.022;2023-01-26T07:55:32;96088.66;;;4.45;49.10
74334;BME280;62753;40.394;-80.022;2023-01-26T07:57:57;96085.48;;;3.33;51.03
74334;BME280;62753;40.394;-80.022;2023-01-26T08:00:23;96097.28;;;3.01;52.69
74334;BME280;62753;40.394;-80.022;2023-01-26T08:02:49;96092.39;;;3.85;50.79
74334;BME280;62753;40.394;-80.022;2023-01-26T08:05:14;96090.16;;;4.26;49.54
74334;BME280;62753;40.394;-80.022;2023-01-26T08:07:39;96086.09;;;2.89;52.38
74334;BME280;62753;40.394;-80.022;2023-01-26T08:10:06;96083.49;;;2.90;53.80
74334;BME280;62753;40.394;-80.022;2023-01-26T08:12:30;96072.01;;;3.78;51.02
74334;BME280;62753;40.394;-80.022;2023-01-26T08:15:01;96075.00;;;2.97;51.87
74334;BME280;62753;40.394;-80.022;2023-01-26T08:17:21;96082.88;;;2.69;53.79
74334;BME280;62753;40.394;-80.022;2023-01-26T08:19:47;96082.33;;;2.55;53.21
74334;BME280;62753;40.394;-80.022;2023-01-26T08:22:12;96089.42;;;3.81;50.58
74334;BME280;62753;40.394;-80.022;2023-01-26T08:24:38;96082.77;;;2.62;53.39
74334;BME280;62753;40.394;-80.022;2023-01-26T08:27:03;96090.62;;;3.37;52.48
74334;BME280;62753;40.394;-80.022;2023-01-26T08:29:29;96097.52;;;3.86;50.42
74334;BME280;62753;40.394;-80.022;2023-01-26T08:31:54;96087.81;;;3.64;51.53
74334;BME280;62753;40.394;-80.022;2023-01-26T08:34:19;96092.32;;;3.47;52.45
74334;BME280;62753;40.394;-80.022;2023-01-26T08:36:45;96092.66;;;3.26;51.22
74334;BME280;62753;40.394;-80.022;2023-01-26T08:39:11;96095.03;;;4.03;51.31
74334;BME280;62753;40.394;-80.022;2023-01-26T08:41:37;96097.67;;;4.15;49.98
74334;BME280;62753;40.394;-80.022;2023-01-26T08:44:02;96101.04;;;2.96;51.91
74334;BME280;62753;40.394;-80.022;2023-01-26T08:46:27;96101.09;;;2.74;54.14
74334;BME280;62753;40.394;-80.022;2023-01-26T08:48:53;96105.49;;;3.24;52.35
74334;BME280;62753;40.394;-80.022;2023-01-26T08:51:19;96103.44;;;2.73;52.51
74334;BME280;62753;40.394;-80.022;2023-01-26T08:53:44;96107.16;;;2.60;53.19
74334;BME280;62753;40.394;-80.022;2023-01-26T08:56:11;96106.58;;;2.98;52.06
74334;BME280;62753;40.394;-80.022;2023-01-26T08:58:35;96105.60;;;3.69;50.45
74334;BME280;62753;40.394;-80.022;2023-01-26T09:01:04;96107.61;;;3.68;50.09
74334;BME280;62753;40.394;-80.022;2023-01-26T09:03:26;96109.52;;;3.31;50.10
74334;BME280;62753;40.394;-80.022;2023-01-26T09:05:51;96119.84;;;3.67;50.07
74334;BME280;62753;40.394;-80.022;2023-01-26T09:08:18;96120.80;;;2.62;51.84
74334;BME280;62753;40.394;-80.022;2023-01-26T09:10:43;96123.16;;;3.06;51.35
74334;BME280;62753;40.394;-80.022;2023-01-26T09:13:09;96126.94;;;4.34;49.60
74334;BME280;62753;40.394;-80.022;2023-01-26T09:15:36;96128.42;;;4.09;49.90
74334;BME280;62753;40.394;-80.022;2023-01-26T09:17:59;96137.07;;;3.95;49.30
74334;BME280;62753;40.394;-80.022;2023-01-26T09:20:30;96134.92;;;2.99;51.68
74334;BME280;62753;40.394;-80.022;2023-01-26T09:22:50;96140.21;;;3.57;50.89
74334;BME280;62753;40.394;-80.022;2023-01-26T09:25:16;96136.54;;;3.09;52.06
74334;BME280;62753;40.394;-80.022;2023-01-26T09:27:41;96133.63;;;3.70;50.86
74334;BME280;62753;40.394;-80.022;2023-01-26T09:30:08;96148.14;;;3.65;51.17
74334;BME280;62753;40.394;-80.022;2023-01-26T09:32:33;96151.27;;;2.84;53.83
74334;BME280;62753;40.394;-80.022;2023-01-26T09:34:58;96154.45;;;4.23;51.41
74334;BME280;62753;40.394;-80.022;2023-01-26T09:37:24;96155.59;;;3.84;53.10
74334;BME280;62753;40.394;-80.022;2023-01-26T09:39:49;96154.58;;;3.66;52.62
74334;BME280;62753;40.394;-80.022;2023-01-26T09:42:25;96161.35;;;4.71;50.24
74334;BME280;62753;40.394;-80.022;2023-01-26T09:44:44;96158.91;;;4.13;50.62
74334;BME280;62753;40.394;-80.022;2023-01-26T09:47:12;96162.96;;;2.30;54.48
74334;BME280;62753;40.394;-80.022;2023-01-26T09:49:41;96167.33;;;2.90;54.11
74334;BME280;62753;40.394;-80.022;2023-01-26T09:52:03;96170.63;;;2.83;54.54
74334;BME280;62753;40.394;-80.022;2023-01-26T09:54:25;96169.72;;;4.00;51.27
74334;BME280;62753;40.394;-80.022;2023-01-26T09:56:48;96173.00;;;3.23;52.49
74334;BME280;62753;40.394;-80.022;2023-01-26T09:59:21;96170.27;;;3.24;53.22
74334;BME280;62753;40.394;-80.022;2023-01-26T10:01:44;96173.18;;;2.86;53.73
74334;BME280;62753;40.394;-80.022;2023-01-26T10:04:10;96172.97;;;2.53;53.99
74334;BME280;62753;40.394;-80.022;2023-01-26T10:06:31;96174.28;;;2.59;53.44
74334;BME280;62753;40.394;-80.022;2023-01-26T10:08:56;96179.90;;;3.12;51.75
74334;BME280;62753;40.394;-80.022;2023-01-26T10:11:26;96179.85;;;3.27;51.27
74334;BME280;62753;40.394;-80.022;2023-01-26T10:13:50;96183.29;;;3.03;52.61
74334;BME280;62753;40.394;-80.022;2023-01-26T10:16:13;96193.58;;;2.67;52.92
74334;BME280;62753;40.394;-80.022;2023-01-26T10:18:44;96190.09;;;2.58;52.76
74334;BME280;62753;40.394;-80.022;2023-01-26T10:21:05;96197.93;;;3.28;52.07
74334;BME280;62753;40.394;-80.022;2023-01-26T10:23:31;96194.94;;;3.62;50.96
74334;BME280;62753;40.394;-80.022;2023-01-26T10:26:00;96195.43;;;3.73;50.03
74334;BME280;62753;40.394;-80.022;2023-01-26T10:28:25;96204.49;;;3.52;50.49
74334;BME280;62753;40.394;-80.022;2023-01-26T10:30:48;96200.13;;;4.02;48.57
74334;BME280;62753;40.394;-80.022;2023-01-26T10:33:17;96198.40;;;4.26;48.35
74334;BME280;62753;40.394;-80.022;2023-01-26T10:35:37;96203.18;;;3.51;50.09
74334;BME280;62753;40.394;-80.022;2023-01-26T10:38:02;96215.81;;;3.80;49.87
74334;BME280;62753;40.394;-80.022;2023-01-26T10:40:28;96207.65;;;2.54;51.85
74334;BME280;62753;40.394;-80.022;2023-01-26T10:42:55;96216.45;;;2.88;50.58
74334;BME280;62753;40.394;-80.022;2023-01-26T10:45:27;96215.90;;;2.84;50.62
74334;BME280;62753;40.394;-80.022;2023-01-26T10:50:19;96228.20;;;3.17;49.34
74334;BME280;62753;40.394;-80.022;2023-01-26T10:52:36;96228.37;;;3.50;50.57
74334;BME280;62753;40.394;-80.022;2023-01-26T10:55:09;96227.10;;;2.92;50.80
74334;BME280;62753;40.394;-80.022;2023-01-26T10:57:29;96244.72;;;4.02;48.56
74334;BME280;62753;40.394;-80.022;2023-01-26T10:59:55;96228.93;;;2.84;50.36
74334;BME280;62753;40.394;-80.022;2023-01-26T11:02:22;96244.08;;;2.82;51.38
74334;BME280;62753;40.394;-80.022;2023-01-26T11:05:00;96253.55;;;2.66;53.12
74334;BME280;62753;40.394;-80.022;2023-01-26T11:07:18;96259.38;;;3.14;50.36
74334;BME280;62753;40.394;-80.022;2023-01-26T11:09:33;96260.09;;;2.83;50.65
74334;BME280;62753;40.394;-80.022;2023-01-26T11:12:00;96269.19;;;3.27;51.56
74334;BME280;62753;40.394;-80.022;2023-01-26T11:14:24;96269.52;;;3.76;49.38
74334;BME280;62753;40.394;-80.022;2023-01-26T11:16:54;96273.16;;;3.44;49.47
74334;BME280;62753;40.394;-80.022;2023-01-26T11:19:20;96272.19;;;3.12;49.78
74334;BME280;62753;40.394;-80.022;2023-01-26T11:21:45;96280.56;;;3.86;49.21
74334;BME280;62753;40.394;-80.022;2023-01-26T11:24:11;96281.52;;;3.43;49.54
74334;BME280;62753;40.394;-80.022;2023-01-26T11:26:47;96284.16;;;3.86;48.07
74334;BME280;62753;40.394;-80.022;2023-01-26T11:29:08;96280.81;;;3.40;51.74
74334;BME280;62753;40.394;-80.022;2023-01-26T11:31:32;96302.50;;;3.20;51.75
74334;BME280;62753;40.394;-80.022;2023-01-26T11:33:55;96301.75;;;3.76;49.65
74334;BME280;62753;40.394;-80.022;2023-01-26T11:36:17;96306.09;;;4.10;48.31
74334;BME280;62753;40.394;-80.022;2023-01-26T11:38:40;96311.17;;;4.13;47.88
74334;BME280;62753;40.394;-80.022;2023-01-26T11:41:23;96313.48;;;4.41;47.29
74334;BME280;62753;40.394;-80.022;2023-01-26T11:43:44;96320.83;;;3.97;48.01
74334;BME280;62753;40.394;-80.022;2023-01-26T11:46:04;96332.01;;;3.61;49.15
74334;BME280;62753;40.394;-80.022;2023-01-26T11:48:24;96332.20;;;2.69;51.97
74334;BME280;62753;40.394;-80.022;2023-01-26T11:50:49;96341.75;;;2.87;51.71
74334;BME280;62753;40.394;-80.022;2023-01-26T11:53:25;96340.87;;;2.97;51.14
74334;BME280;62753;40.394;-80.022;2023-01-26T11:55:47;96345.01;;;3.30;52.04
74334;BME280;62753;40.394;-80.022;2023-01-26T11:58:14;96352.46;;;4.22;49.22
74334;BME280;62753;40.394;-80.022;2023-01-26T12:00:36;96353.15;;;5.15;46.20
74334;BME280;62753;40.394;-80.022;2023-01-26T12:03:00;96357.22;;;5.44;45.07
74334;BME280;62753;40.394;-80.022;2023-01-26T12:05:28;96351.26;;;4.20;46.71
74334;BME280;62753;40.394;-80.022;2023-01-26T12:07:50;96360.29;;;4.65;47.10
74334;BME280;62753;40.394;-80.022;2023-01-26T12:10:13;96368.08;;;4.87;47.24
74334;BME280;62753;40.394;-80.022;2023-01-26T12:12:40;96373.11;;;3.71;49.14
74334;BME280;62753;40.394;-80.022;2023-01-26T12:15:03;96378.34;;;4.71;47.07
74334;BME280;62753;40.394;-80.022;2023-01-26T12:17:31;96381.88;;;3.48;49.92
74334;BME280;62753;40.394;-80.022;2023-01-26T12:19:55;96384.93;;;3.65;48.64
74334;BME280;62753;40.394;-80.022;2023-01-26T12:22:21;96380.69;;;3.59;49.44
74334;BME280;62753;40.394;-80.022;2023-01-26T12:24:50;96375.57;;;3.31;50.20
74334;BME280;62753;40.394;-80.022;2023-01-26T12:27:15;96392.08;;;2.26;52.48
74334;BME280;62753;40.394;-80.022;2023-01-26T12:29:40;96393.85;;;2.17;52.17
74334;BME280;62753;40.394;-80.022;2023-01-26T12:32:02;96389.40;;;2.22;52.62
74334;BME280;62753;40.394;-80.022;2023-01-26T12:34:27;96393.25;;;1.76;53.48
74334;BME280;62753;40.394;-80.022;2023-01-26T12:36:58;96395.09;;;3.56;50.03
74334;BME280;62753;40.394;-80.022;2023-01-26T12:39:19;96393.40;;;3.42;49.99
74334;BME280;62753;40.394;-80.022;2023-01-26T12:44:16;96395.65;;;3.66;47.62